Aérodrome :
LOGIN :

S'inscrire | Disclaimer

   EN    FR    IT 

 










Légende :    VFR   VFR Marginal   IFR   IFR Intensif   IFR Très Intensif
Visi : 
Plafond : 
>= 8 km
>= 3000ft
5 à 8 km
1000 à 3000 ft
1500m à 5 km
500 à 1000 ft
800 à 1500m
200 à 500 ft
< 800m
< 200 ft
Symboles :   Orages  Brouillard  Fortes neiges  Fortes précipitations  Vent > 20 kt
SIGMETs :   Divers  Orages  Givrage  Turbulence  Onde Orograph.  Cendres Volcan.






- Altitude de l'aérodrome : 121 ft
- Code IATA : HUY


EGNJ - Humberside

DERNIER METAR :
  • 210050Z AUTO 28009KT 9999 OVC037/// 02/M02 Q1039

METARs EXPIRÉS :
  • 210020Z AUTO 28008KT 9999 BKN033/// 01/M02 Q1039
  • 202350Z AUTO 27009KT 9999 BKN032/// 01/M02 Q1038
  • 202320Z AUTO 27008KT 9999 BKN033/// 02/M02 Q1038
  • 202250Z AUTO 27009KT 9999 FEW035/// 02/M02 Q1038
  • 202220Z AUTO 28009KT 9999 SCT036/// 03/M02 Q1038

TAF TAF EGNJ
Valide du 21 à 00h jusqu'au 21 à 09h UTC


202257Z 2100/2109 31009KT 9999 SCT045
PROB30 2106/2109 8000
ATIS : +44 1652 682 020



MET'MAP, la Météo Aéronautique d'un coup d'oeil ! - Copyright ORBIFLY Décembre 2007 - Disclaimer

ORBIFLY MET'MAP TEAM :

Programmation & Développement : Alexandra Zaïnal
Sur une idée originale de : Baudouin d'Aumeries
Assistance à la programmation : Marc-Olivier Méhu
Soutien technique & logistique : Manuel Goepfert

Contact : metmap@orbifly.com




SOURCES & CREDITS :

   NOAA